Tokuyo Maru No.17 — JD4156 — position and weather

sailwx.info

Track history (hours):
 
Tides and Currents Weather Stations Pressure Air Temp Water Temp Dewpoint Dewpoint Depression Visibility Wind Speed Wind Dir Waves Ship Positions

Tokuyo Maru No.17

Last reported at 2018-Jun-15 12:55 UTC. Time now 2018-Jun-19 10:33 UTC.
Position N 34°21' E 134°24'.

Length 67 m; draft 4.5 m.

Type: Tanker. MMSI: 431009496.

Date/timePositionNaut miles runAvg speedWind from/ knotsBaromVisibWave heightAir tempDewpointWater temp
2018-Jun-15 12:55N 34°21' E 134°24'713.8
2018-Jun-15 12:24N 34°18' E 134°32'813.5
2018-Jun-15 11:50N 34°14' E 134°39'913.8
2018-Jun-15 11:10N 34°07' E 134°46'213.3
2018-Jun-15 11:00N 34°05' E 134°48'813.4
2018-Jun-15 10:26N 33°59' E 134°54'613.3
2018-Jun-15 09:59N 33°55' E 134°58'250 5.2
2018-Jun-13 09:36N 35°13' E 139°46'213.1
2018-Jun-13 09:29N 35°14' E 139°47'612.7
2018-Jun-13 09:00N 35°20' E 139°43'611.6
2018-Jun-13 08:30N 35°25' E 139°45'612.3
2018-Jun-13 08:00N 35°29' E 139°51'612.3
2018-Jun-13 07:30N 35°31' E 139°58'3 0.3
2018-Jun-12 21:22N 35°31' E 140°01'1 0.2
2018-Jun-12 14:49N 35°31' E 139°60'412.5
2018-Jun-12 14:28N 35°29' E 139°55'612.1
2018-Jun-12 13:59N 35°26' E 139°49'612.2
2018-Jun-12 13:30N 35°21' E 139°45'611.3
2018-Jun-12 13:00N 35°16' E 139°47'911.8
2018-Jun-12 12:14N 35°07' E 139°45'  
2018-Jun-08 07:26N 35°07' E 139°41'611.4
2018-Jun-08 06:57N 35°12' E 139°46'511.2
2018-Jun-08 06:30N 35°17' E 139°45'611.9
2018-Jun-08 06:00N 35°22' E 139°42'611.3
2018-Jun-08 05:31N 35°27' E 139°46'4 8.2
2018-Jun-08 05:00N 35°31' E 139°46'0 0.1
2018-Jun-08 04:30N 35°31' E 139°46'0 0.0
2018-Jun-08 04:00N 35°31' E 139°46'0 0.0
2018-Jun-08 03:30N 35°31' E 139°46'0 0.0
2018-Jun-08 03:00N 35°31' E 139°46'0 0.0
2018-Jun-08 02:30N 35°31' E 139°46'0 0.0
2018-Jun-08 02:00N 35°31' E 139°46'0 0.0
2018-Jun-08 01:30N 35°31' E 139°46'0 0.0
2018-Jun-08 01:00N 35°31' E 139°46'0 0.0
2018-Jun-08 00:30N 35°31' E 139°46'0 0.0
2018-Jun-08 00:00N 35°31' E 139°46'3 5.4
2018-Jun-07 23:30N 35°30' E 139°49'1 1.5
2018-Jun-07 23:00N 35°30' E 139°50'0 0.0
2018-Jun-07 22:30N 35°30' E 139°50'0 0.0
2018-Jun-07 22:00N 35°30' E 139°50'0 0.0
2018-Jun-07 21:30N 35°30' E 139°50'0 0.0
2018-Jun-07 21:01N 35°30' E 139°50'0 0.0
2018-Jun-07 20:30N 35°30' E 139°50'0 0.0
2018-Jun-07 20:00N 35°30' E 139°50'0 0.1
2018-Jun-07 19:30N 35°30' E 139°50'0 0.1
2018-Jun-07 19:00N 35°30' E 139°50'0 0.0
2018-Jun-07 18:31N 35°30' E 139°50'0 0.0
2018-Jun-07 18:00N 35°30' E 139°50'0 0.0
2018-Jun-07 17:30N 35°30' E 139°50'0 0.0
2018-Jun-07 16:59N 35°30' E 139°50'0 0.0
2018-Jun-07 16:30N 35°30' E 139°50'0 0.0
2018-Jun-07 16:00N 35°30' E 139°50'0 0.0
2018-Jun-07 15:30N 35°30' E 139°50'0 0.0
2018-Jun-07 15:01N 35°30' E 139°50'0 0.0
2018-Jun-07 14:30N 35°30' E 139°50'0 0.0
2018-Jun-07 14:00N 35°30' E 139°50'0 0.0
2018-Jun-07 13:30N 35°30' E 139°50'0 0.0
2018-Jun-07 13:00N 35°30' E 139°50'0 0.0
2018-Jun-07 12:30N 35°30' E 139°50'0 0.0
2018-Jun-07 11:58N 35°30' E 139°50'0 0.0
2018-Jun-07 11:30N 35°30' E 139°50'0 0.0
2018-Jun-07 11:00N 35°30' E 139°50'0 0.0
2018-Jun-07 10:30N 35°30' E 139°50'0 0.0
2018-Jun-07 10:00N 35°30' E 139°50'0 0.0
2018-Jun-07 09:30N 35°30' E 139°50'0 0.0
2018-Jun-07 08:59N 35°30' E 139°50'0 0.0
2018-Jun-07 08:30N 35°30' E 139°50'0 0.0
2018-Jun-07 08:00N 35°30' E 139°50'0 0.0
2018-Jun-07 07:30N 35°30' E 139°50'0 0.0
2018-Jun-07 07:01N 35°30' E 139°50'0 0.0
2018-Jun-07 06:30N 35°30' E 139°50'0 0.0
2018-Jun-07 06:00N 35°30' E 139°50'0 0.0
2018-Jun-07 05:31N 35°30' E 139°50'0 0.0
2018-Jun-07 05:00N 35°30' E 139°50'0 0.0
2018-Jun-07 04:31N 35°30' E 139°50'0 0.1
2018-Jun-07 04:00N 35°30' E 139°50'0 0.0
2018-Jun-07 03:30N 35°30' E 139°50'0 0.0
2018-Jun-07 03:00N 35°30' E 139°50'0 0.0
2018-Jun-07 02:30N 35°30' E 139°50'0 0.0
2018-Jun-07 02:00N 35°30' E 139°50'0 0.0
2018-Jun-07 01:30N 35°30' E 139°50'0 0.0
2018-Jun-07 01:01N 35°30' E 139°50'0 0.0
2018-Jun-07 00:30N 35°30' E 139°50'3 5.7
2018-Jun-07 00:00N 35°28' E 139°48'612.6
2018-Jun-06 23:30N 35°22' E 139°45'611.7
2018-Jun-06 23:00N 35°16' E 139°46'  
Track history (hours):
 
Tides and Currents Weather Stations Pressure Air Temp Water Temp Dewpoint Dewpoint Depression Visibility Wind Speed Wind Dir Waves Ship Positions

Tokuyo Maru No.17

Last reported at 2018-Jun-15 12:55 UTC. Time now 2018-Jun-19 10:33 UTC.
Position N 34°21' E 134°24'.

Length 67 m; draft 4.5 m.

Type: Tanker. MMSI: 431009496.

Date/timePositionNaut miles runAvg speedWind from/ knotsBaromVisibWave heightAir tempDewpointWater temp
2018-Jun-15 12:55N 34°21' E 134°24'713.8
2018-Jun-15 12:24N 34°18' E 134°32'813.5
2018-Jun-15 11:50N 34°14' E 134°39'913.8
2018-Jun-15 11:10N 34°07' E 134°46'213.3
2018-Jun-15 11:00N 34°05' E 134°48'813.4
2018-Jun-15 10:26N 33°59' E 134°54'613.3
2018-Jun-15 09:59N 33°55' E 134°58'250 5.2
2018-Jun-13 09:36N 35°13' E 139°46'213.1
2018-Jun-13 09:29N 35°14' E 139°47'612.7
2018-Jun-13 09:00N 35°20' E 139°43'611.6
2018-Jun-13 08:30N 35°25' E 139°45'612.3
2018-Jun-13 08:00N 35°29' E 139°51'612.3
2018-Jun-13 07:30N 35°31' E 139°58'3 0.3
2018-Jun-12 21:22N 35°31' E 140°01'1 0.2
2018-Jun-12 14:49N 35°31' E 139°60'412.5
2018-Jun-12 14:28N 35°29' E 139°55'612.1
2018-Jun-12 13:59N 35°26' E 139°49'612.2
2018-Jun-12 13:30N 35°21' E 139°45'611.3
2018-Jun-12 13:00N 35°16' E 139°47'911.8
2018-Jun-12 12:14N 35°07' E 139°45'  
2018-Jun-08 07:26N 35°07' E 139°41'611.4
2018-Jun-08 06:57N 35°12' E 139°46'511.2
2018-Jun-08 06:30N 35°17' E 139°45'611.9
2018-Jun-08 06:00N 35°22' E 139°42'611.3
2018-Jun-08 05:31N 35°27' E 139°46'4 8.2
2018-Jun-08 05:00N 35°31' E 139°46'0 0.1
2018-Jun-08 04:30N 35°31' E 139°46'0 0.0
2018-Jun-08 04:00N 35°31' E 139°46'0 0.0
2018-Jun-08 03:30N 35°31' E 139°46'0 0.0
2018-Jun-08 03:00N 35°31' E 139°46'0 0.0
2018-Jun-08 02:30N 35°31' E 139°46'0 0.0
2018-Jun-08 02:00N 35°31' E 139°46'0 0.0
2018-Jun-08 01:30N 35°31' E 139°46'0 0.0
2018-Jun-08 01:00N 35°31' E 139°46'0 0.0
2018-Jun-08 00:30N 35°31' E 139°46'0 0.0
2018-Jun-08 00:00N 35°31' E 139°46'3 5.4
2018-Jun-07 23:30N 35°30' E 139°49'1 1.5
2018-Jun-07 23:00N 35°30' E 139°50'0 0.0
2018-Jun-07 22:30N 35°30' E 139°50'0 0.0
2018-Jun-07 22:00N 35°30' E 139°50'0 0.0
2018-Jun-07 21:30N 35°30' E 139°50'0 0.0
2018-Jun-07 21:01N 35°30' E 139°50'0 0.0
2018-Jun-07 20:30N 35°30' E 139°50'0 0.0
2018-Jun-07 20:00N 35°30' E 139°50'0 0.1
2018-Jun-07 19:30N 35°30' E 139°50'0 0.1
2018-Jun-07 19:00N 35°30' E 139°50'0 0.0
2018-Jun-07 18:31N 35°30' E 139°50'0 0.0
2018-Jun-07 18:00N 35°30' E 139°50'0 0.0
2018-Jun-07 17:30N 35°30' E 139°50'0 0.0
2018-Jun-07 16:59N 35°30' E 139°50'0 0.0
2018-Jun-07 16:30N 35°30' E 139°50'0 0.0
2018-Jun-07 16:00N 35°30' E 139°50'0 0.0
2018-Jun-07 15:30N 35°30' E 139°50'0 0.0
2018-Jun-07 15:01N 35°30' E 139°50'0 0.0
2018-Jun-07 14:30N 35°30' E 139°50'0 0.0
2018-Jun-07 14:00N 35°30' E 139°50'0 0.0
2018-Jun-07 13:30N 35°30' E 139°50'0 0.0
2018-Jun-07 13:00N 35°30' E 139°50'0 0.0
2018-Jun-07 12:30N 35°30' E 139°50'0 0.0
2018-Jun-07 11:58N 35°30' E 139°50'0 0.0
2018-Jun-07 11:30N 35°30' E 139°50'0 0.0
2018-Jun-07 11:00N 35°30' E 139°50'0 0.0
2018-Jun-07 10:30N 35°30' E 139°50'0 0.0
2018-Jun-07 10:00N 35°30' E 139°50'0 0.0
2018-Jun-07 09:30N 35°30' E 139°50'0 0.0
2018-Jun-07 08:59N 35°30' E 139°50'0 0.0
2018-Jun-07 08:30N 35°30' E 139°50'0 0.0
2018-Jun-07 08:00N 35°30' E 139°50'0 0.0
2018-Jun-07 07:30N 35°30' E 139°50'0 0.0
2018-Jun-07 07:01N 35°30' E 139°50'0 0.0
2018-Jun-07 06:30N 35°30' E 139°50'0 0.0
2018-Jun-07 06:00N 35°30' E 139°50'0 0.0
2018-Jun-07 05:31N 35°30' E 139°50'0 0.0
2018-Jun-07 05:00N 35°30' E 139°50'0 0.0
2018-Jun-07 04:31N 35°30' E 139°50'0 0.1
2018-Jun-07 04:00N 35°30' E 139°50'0 0.0
2018-Jun-07 03:30N 35°30' E 139°50'0 0.0
2018-Jun-07 03:00N 35°30' E 139°50'0 0.0
2018-Jun-07 02:30N 35°30' E 139°50'0 0.0
2018-Jun-07 02:00N 35°30' E 139°50'0 0.0
2018-Jun-07 01:30N 35°30' E 139°50'0 0.0
2018-Jun-07 01:01N 35°30' E 139°50'0 0.0
2018-Jun-07 00:30N 35°30' E 139°50'3 5.7
2018-Jun-07 00:00N 35°28' E 139°48'612.6
2018-Jun-06 23:30N 35°22' E 139°45'611.7
2018-Jun-06 23:00N 35°16' E 139°46'  

Dump ship's entire track history